Amunt
Inicio > meteoXarxa
Fes-te'n soci

METEOXARXA

l′Alcúdia de Crespins
Ubicació Alcoleja
Comarca la Costera
Altitud (msnm) 160
Posició geogràfica 38° 58' 15.60" N, 00° 35' 2.40" W
Model
Presa de dades
Font de les dades
Estadístiques. Resum
Data Temperatura (ºC) Humitat (%) Pressió (hPa) Vent (km/h) Precipit. (mm)
Mínima Mitjana Màxima Mínima Mitjana Màxima Mínima Mitjana Màxima Predom. Mitjana Ràfega màxima Total Dies de pluja
Mínima Mitjana Màxima Mínima Mitjana Màxima
Últimes dades diàries
27-03-2017 9,7     15,7     22,8 38,0 69,6 98,0 0,0 0,0 0,0 N 1,2 21,9 0,0  
26-03-2017 5,9     12,7     20,4 47,0 75,3 92,0 0,0 0,0 0,0 N 1,2 19,1 0,0  
25-03-2017         21,7 29,0 59,2 92,0 0,0 0,0 0,0 N 2,4 25,9 0,0  
22-03-2017         23,7 28,0 57,1 89,0 0,0 0,0 0,0 N 1,4 23,3 0,0  
21-03-2017 9,2     16,3     24,6 43,0 70,8 97,0 0,0 0,0 0,0 N 0,6 23,3 0,0  
20-03-2017 7,8     15,4     25,8 37,0 74,0 96,0 0,0 0,0 0,0 N 0,1 13,7 0,0  
19-03-2017 8,4     15,9     27,4 31,0 65,1 91,0 0,0 0,0 0,0 N 0,5 13,7 0,0  
18-03-2017 6,1     14,3     26,1 36,0 73,4 98,0 0,0 0,0 0,0 N 0,1 13,7 0,0  
17-03-2017 3,8     11,0     20,7 53,0 79,5 96,0 0,0 0,0 0,0 N 0,5 12,2 0,0  
16-03-2017 6,4     12,0     20,2 49,0 83,0 100,0 0,0 0,0 0,0 N 0,5 15,1 0,0  
15-03-2017 5,3     11,3     19,1 53,0 84,5 100,0 0,0 0,0 0,0 N 1,1 21,9 0,0  
14-03-2017 8,8     13,2     18,9 68,0 87,0 100,0 0,0 0,0 0,0 N 2,9 24,8 0,0  
13-03-2017 7,3     9,3     11,7 98,0 99,7 100,0 0,0 0,0 0,0 N 2,3 28,8  
12-03-2017 9,4     16,1     25,2 51,0 76,2 97,0 0,0 0,0 0,0 N 0,7 23,3 0,0  
11-03-2017 6,1     16,4     31,2 29,0 72,0 96,0 0,0 0,0 0,0 N 0,3 13,7 0,0  
10-03-2017 10,8     19,5     32,7 19,0 52,0 95,0 0,0 0,0 0,0 N 1,1 16,6 0,0  
09-03-2017 9,8     20,0     33,3 18,0 54,4 91,0 0,0 0,0 0,0 N 0,5 15,1 0,0  
08-03-2017 9,4     17,0     27,3 34,0 62,0 87,0 0,0 0,0 0,0 N 0,0 10,8 0,0  
07-03-2017 12,1     18,6     25,4 35,0 56,1 81,0 0,0 0,0 0,0 N 2,1 27,4 0,0  
06-03-2017 14,6     18,4     23,3 47,0 62,2 77,0 0,0 0,0 0,0 N 5,4 31,7 0,0  
05-03-2017 4,7     12,6     19,4 53,0 71,9 89,0 0,0 0,0 0,0 N 1,5 21,9 0,0  
04-03-2017 6,4     9,6     14,1 48,0 65,9 80,0 0,0 0,0 0,0 N 5,3 47,9 0,0  
03-03-2017 3,8     9,9     17,1 71,0 87,2 98,0 0,0 0,0 0,0 N 1,1 59,1  
02-03-2017 9,1     14,6     24,7 42,0 71,7 96,0 0,0 0,0 0,0 N 0,4 15,1 0,0  
01-03-2017 8,2     14,4     22,9 41,0 68,9 89,0 0,0 0,0 0,0 N 1,1 21,9 0,0  
28-02-2017 8,9     15,0     21,0 43,0 59,4 78,0 0,0 0,0 0,0 N 2,8 24,8 0,0  
27-02-2017 7,8     13,7     20,8 47,0 72,7 99,0 0,0 0,0 0,0 N 2,3 20,6 0,0  
26-02-2017         21,4 -999,0 42,1 99,0 0,0 0,0 0,0 N 0,6 15,1 0,0  
25-02-2017 5,3     11,6     20,0 51,0 85,1 100,0 0,0 0,0 0,0 N 0,0 0,0 0,0  
24-02-2017 8,2     11,9     16,2 80,0 93,4 99,0 0,0 0,0 0,0 N 0,0 0,0 0,0  
23-02-2017 8,4     11,7     18,2 55,0 80,2 94,0 0,0 0,0 0,0 N 0,0 0,0 0,0  
22-02-2017 5,3     10,5     18,9 50,0 73,5 88,0 0,0 0,0 0,0 N 0,0 0,0 0,0  
Dades del mes en curs (actualitzades fins l'últim dia disponible)
03/2017 3,8 8,0 14,6 14,5 11,7 23,2 33,3 18,0 71,1 100,0 0,0 0,0 0,0   1,4 59,1 0,0  
Últimes dades mensuals
01/2017 -2,6 4,0 9,1 8,9 6,1 15,2 22,2 54,4 76,3 97,9 0,0 9,7
Dades de l'any en curs (actualitzades fins l'últim dia disponible)
2017 -2,6 6,3 14,6 11,7 6,1 18,6 33,3 -999,0 74,4 100,0 0,0 0,0 0,0   0,5 59,1 0,0  
Últimes dades anuals